sensor_id;sensor_type;location;lat;lon;timestamp;pressure;altitude;pressure_sealevel;temperature
81657;BMP280;71067;51.482;-0.580;2023-07-09T00:01:16;101630.97;;;20.48
81657;BMP280;71067;51.482;-0.580;2023-07-09T00:03:42;101630.16;;;20.47
81657;BMP280;71067;51.482;-0.580;2023-07-09T00:06:08;101634.25;;;20.43
81657;BMP280;71067;51.482;-0.580;2023-07-09T00:08:34;101647.97;;;20.45
81657;BMP280;71067;51.482;-0.580;2023-07-09T00:10:59;101635.25;;;20.36
81657;BMP280;71067;51.482;-0.580;2023-07-09T00:13:27;101632.47;;;20.31
81657;BMP280;71067;51.482;-0.580;2023-07-09T00:15:56;101632.63;;;20.36
81657;BMP280;71067;51.482;-0.580;2023-07-09T00:18:23;101642.13;;;20.37
81657;BMP280;71067;51.482;-0.580;2023-07-09T00:20:48;101637.06;;;20.35
81657;BMP280;71067;51.482;-0.580;2023-07-09T00:23:14;101641.34;;;20.36
81657;BMP280;71067;51.482;-0.580;2023-07-09T00:25:40;101647.59;;;20.35
81657;BMP280;71067;51.482;-0.580;2023-07-09T00:28:16;101657.31;;;20.35
81657;BMP280;71067;51.482;-0.580;2023-07-09T00:30:43;101640.94;;;20.33
81657;BMP280;71067;51.482;-0.580;2023-07-09T00:33:13;101648.81;;;20.33
81657;BMP280;71067;51.482;-0.580;2023-07-09T00:35:40;101652.06;;;20.35
81657;BMP280;71067;51.482;-0.580;2023-07-09T00:38:17;101656.31;;;20.36
81657;BMP280;71067;51.482;-0.580;2023-07-09T00:41:02;101657.31;;;20.35
81657;BMP280;71067;51.482;-0.580;2023-07-09T00:43:34;101658.53;;;20.32
81657;BMP280;71067;51.482;-0.580;2023-07-09T00:46:16;101646.81;;;20.22
81657;BMP280;71067;51.482;-0.580;2023-07-09T00:48:43;101659.75;;;20.30
81657;BMP280;71067;51.482;-0.580;2023-07-09T00:51:13;101664.41;;;20.28
81657;BMP280;71067;51.482;-0.580;2023-07-09T00:53:39;101667.25;;;20.33
81657;BMP280;71067;51.482;-0.580;2023-07-09T00:56:12;101674.94;;;20.28
81657;BMP280;71067;51.482;-0.580;2023-07-09T00:58:40;101672.09;;;20.23
81657;BMP280;71067;51.482;-0.580;2023-07-09T01:01:12;101676.97;;;20.26
81657;BMP280;71067;51.482;-0.580;2023-07-09T01:03:45;101677.38;;;20.23
81657;BMP280;71067;51.482;-0.580;2023-07-09T01:06:11;101678.78;;;20.25
81657;BMP280;71067;51.482;-0.580;2023-07-09T01:08:39;101684.66;;;20.21
81657;BMP280;71067;51.482;-0.580;2023-07-09T01:11:16;101681.41;;;20.19
81657;BMP280;71067;51.482;-0.580;2023-07-09T01:13:55;101694.38;;;20.14
81657;BMP280;71067;51.482;-0.580;2023-07-09T01:16:24;101702.06;;;20.09
81657;BMP280;71067;51.482;-0.580;2023-07-09T01:18:50;101698.00;;;20.06
81657;BMP280;71067;51.482;-0.580;2023-07-09T01:21:16;101699.03;;;20.05
81657;BMP280;71067;51.482;-0.580;2023-07-09T01:23:42;101694.78;;;20.04
81657;BMP280;71067;51.482;-0.580;2023-07-09T01:26:13;101697.63;;;20.09
81657;BMP280;71067;51.482;-0.580;2023-07-09T01:28:39;101704.47;;;20.04
81657;BMP280;71067;51.482;-0.580;2023-07-09T01:31:14;101687.09;;;19.96
81657;BMP280;71067;51.482;-0.580;2023-07-09T01:33:41;101686.50;;;20.01
81657;BMP280;71067;51.482;-0.580;2023-07-09T01:36:12;101683.84;;;20.01
81657;BMP280;71067;51.482;-0.580;2023-07-09T01:38:40;101690.94;;;20.07
81657;BMP280;71067;51.482;-0.580;2023-07-09T01:41:06;101687.72;;;20.05
81657;BMP280;71067;51.482;-0.580;2023-07-09T01:43:32;101684.06;;;19.99
81657;BMP280;71067;51.482;-0.580;2023-07-09T01:45:58;101679.16;;;19.89
81657;BMP280;71067;51.482;-0.580;2023-07-09T01:48:24;101687.06;;;19.89
81657;BMP280;71067;51.482;-0.580;2023-07-09T01:50:51;101685.25;;;19.90
81657;BMP280;71067;51.482;-0.580;2023-07-09T01:53:21;101697.22;;;19.99
81657;BMP280;71067;51.482;-0.580;2023-07-09T01:55:51;101698.41;;;19.90
81657;BMP280;71067;51.482;-0.580;2023-07-09T01:58:17;101688.47;;;19.85
81657;BMP280;71067;51.482;-0.580;2023-07-09T02:00:43;101690.34;;;19.91
81657;BMP280;71067;51.482;-0.580;2023-07-09T02:03:10;101689.91;;;19.88
81657;BMP280;71067;51.482;-0.580;2023-07-09T02:05:36;101672.50;;;19.74
81657;BMP280;71067;51.482;-0.580;2023-07-09T02:08:01;101703.28;;;19.86
81657;BMP280;71067;51.482;-0.580;2023-07-09T02:10:27;101708.94;;;19.83
81657;BMP280;71067;51.482;-0.580;2023-07-09T02:12:52;101705.69;;;19.81
81657;BMP280;71067;51.482;-0.580;2023-07-09T02:15:18;101702.44;;;19.79
81657;BMP280;71067;51.482;-0.580;2023-07-09T02:17:43;101715.56;;;19.73
81657;BMP280;71067;51.482;-0.580;2023-07-09T02:20:10;101715.78;;;19.71
81657;BMP280;71067;51.482;-0.580;2023-07-09T02:22:37;101704.81;;;19.61
81657;BMP280;71067;51.482;-0.580;2023-07-09T02:25:03;101703.59;;;19.64
81657;BMP280;71067;51.482;-0.580;2023-07-09T02:27:29;101704.03;;;19.54
81657;BMP280;71067;51.482;-0.580;2023-07-09T02:29:54;101705.19;;;19.45
81657;BMP280;71067;51.482;-0.580;2023-07-09T02:32:22;101685.97;;;19.32
81657;BMP280;71067;51.482;-0.580;2023-07-09T02:34:48;101689.78;;;19.29
81657;BMP280;71067;51.482;-0.580;2023-07-09T02:37:17;101688.31;;;19.20
81657;BMP280;71067;51.482;-0.580;2023-07-09T02:39:43;101696.66;;;19.24
81657;BMP280;71067;51.482;-0.580;2023-07-09T02:42:13;101700.28;;;19.23
81657;BMP280;71067;51.482;-0.580;2023-07-09T02:44:42;101690.94;;;19.20
81657;BMP280;71067;51.482;-0.580;2023-07-09T02:47:09;101704.94;;;19.27
81657;BMP280;71067;51.482;-0.580;2023-07-09T02:49:36;101704.53;;;19.30
81657;BMP280;71067;51.482;-0.580;2023-07-09T02:52:01;101703.25;;;19.20
81657;BMP280;71067;51.482;-0.580;2023-07-09T02:54:26;101700.03;;;19.24
81657;BMP280;71067;51.482;-0.580;2023-07-09T02:56:52;101685.09;;;19.18
81657;BMP280;71067;51.482;-0.580;2023-07-09T02:59:17;101693.16;;;19.10
81657;BMP280;71067;51.482;-0.580;2023-07-09T03:01:42;101686.69;;;19.13
81657;BMP280;71067;51.482;-0.580;2023-07-09T03:04:08;101692.53;;;19.08
81657;BMP280;71067;51.482;-0.580;2023-07-09T03:06:35;101696.75;;;19.03
81657;BMP280;71067;51.482;-0.580;2023-07-09T03:09:02;101684.81;;;19.07
81657;BMP280;71067;51.482;-0.580;2023-07-09T03:11:32;101680.75;;;18.98
81657;BMP280;71067;51.482;-0.580;2023-07-09T03:13:58;101665.00;;;18.98
81657;BMP280;71067;51.482;-0.580;2023-07-09T03:16:23;101659.34;;;18.94
81657;BMP280;71067;51.482;-0.580;2023-07-09T03:18:48;101674.50;;;18.92
81657;BMP280;71067;51.482;-0.580;2023-07-09T03:21:14;101694.09;;;18.96
81657;BMP280;71067;51.482;-0.580;2023-07-09T03:23:40;101703.38;;;18.99
81657;BMP280;71067;51.482;-0.580;2023-07-09T03:26:05;101695.72;;;18.97
81657;BMP280;71067;51.482;-0.580;2023-07-09T03:28:31;101690.41;;;18.91
81657;BMP280;71067;51.482;-0.580;2023-07-09T03:30:57;101687.38;;;18.87
81657;BMP280;71067;51.482;-0.580;2023-07-09T03:33:23;101686.13;;;18.83
81657;BMP280;71067;51.482;-0.580;2023-07-09T03:35:49;101673.38;;;18.80
81657;BMP280;71067;51.482;-0.580;2023-07-09T03:38:15;101700.44;;;18.74
81657;BMP280;71067;51.482;-0.580;2023-07-09T03:40:40;101701.41;;;18.73
81657;BMP280;71067;51.482;-0.580;2023-07-09T03:43:06;101717.75;;;18.75
81657;BMP280;71067;51.482;-0.580;2023-07-09T03:45:34;101718.81;;;18.74
81657;BMP280;71067;51.482;-0.580;2023-07-09T03:48:00;101717.56;;;18.70
81657;BMP280;71067;51.482;-0.580;2023-07-09T03:50:25;101719.38;;;18.70
81657;BMP280;71067;51.482;-0.580;2023-07-09T03:52:50;101710.63;;;18.63
81657;BMP280;71067;51.482;-0.580;2023-07-09T03:55:16;101697.84;;;18.53
81657;BMP280;71067;51.482;-0.580;2023-07-09T03:57:41;101715.88;;;18.63
81657;BMP280;71067;51.482;-0.580;2023-07-09T04:00:07;101696.91;;;18.61
81657;BMP280;71067;51.482;-0.580;2023-07-09T04:02:39;101703.22;;;18.73
81657;BMP280;71067;51.482;-0.580;2023-07-09T04:05:06;101699.78;;;18.72
81657;BMP280;71067;51.482;-0.580;2023-07-09T04:07:33;101679.75;;;18.65
81657;BMP280;71067;51.482;-0.580;2023-07-09T04:09:59;101711.25;;;18.65
81657;BMP280;71067;51.482;-0.580;2023-07-09T04:12:24;101726.03;;;18.72
81657;BMP280;71067;51.482;-0.580;2023-07-09T04:14:50;101735.53;;;18.73
81657;BMP280;71067;51.482;-0.580;2023-07-09T04:17:15;101715.13;;;18.69
81657;BMP280;71067;51.482;-0.580;2023-07-09T04:19:40;101737.41;;;18.79
81657;BMP280;71067;51.482;-0.580;2023-07-09T04:22:05;101718.22;;;18.79
81657;BMP280;71067;51.482;-0.580;2023-07-09T04:24:31;101689.47;;;18.64
81657;BMP280;71067;51.482;-0.580;2023-07-09T04:26:58;101696.16;;;18.73
81657;BMP280;71067;51.482;-0.580;2023-07-09T04:29:32;101708.06;;;18.69
81657;BMP280;71067;51.482;-0.580;2023-07-09T04:32:02;101725.03;;;18.73
81657;BMP280;71067;51.482;-0.580;2023-07-09T04:34:27;101738.97;;;18.74
81657;BMP280;71067;51.482;-0.580;2023-07-09T04:36:52;101738.19;;;18.80
81657;BMP280;71067;51.482;-0.580;2023-07-09T04:39:18;101733.00;;;18.86
81657;BMP280;71067;51.482;-0.580;2023-07-09T04:41:43;101722.25;;;18.81
81657;BMP280;71067;51.482;-0.580;2023-07-09T04:44:09;101726.34;;;18.84
81657;BMP280;71067;51.482;-0.580;2023-07-09T04:46:34;101738.88;;;18.88
81657;BMP280;71067;51.482;-0.580;2023-07-09T04:48:59;101739.31;;;18.92
81657;BMP280;71067;51.482;-0.580;2023-07-09T04:51:25;101736.06;;;18.90
81657;BMP280;71067;51.482;-0.580;2023-07-09T04:53:51;101733.38;;;18.83
81657;BMP280;71067;51.482;-0.580;2023-07-09T04:56:17;101743.59;;;18.72
81657;BMP280;71067;51.482;-0.580;2023-07-09T04:58:42;101745.84;;;18.75
81657;BMP280;71067;51.482;-0.580;2023-07-09T05:01:07;101743.66;;;18.78
81657;BMP280;71067;51.482;-0.580;2023-07-09T05:03:33;101750.91;;;18.76
81657;BMP280;71067;51.482;-0.580;2023-07-09T05:05:58;101760.66;;;18.82
81657;BMP280;71067;51.482;-0.580;2023-07-09T05:08:23;101756.19;;;18.83
81657;BMP280;71067;51.482;-0.580;2023-07-09T05:10:51;101757.19;;;18.82
81657;BMP280;71067;51.482;-0.580;2023-07-09T05:13:17;101753.75;;;18.81
81657;BMP280;71067;51.482;-0.580;2023-07-09T05:15:45;101747.53;;;18.82
81657;BMP280;71067;51.482;-0.580;2023-07-09T05:18:12;101747.28;;;18.77
81657;BMP280;71067;51.482;-0.580;2023-07-09T05:20:37;101740.78;;;18.73
81657;BMP280;71067;51.482;-0.580;2023-07-09T05:23:03;101747.69;;;18.74
81657;BMP280;71067;51.482;-0.580;2023-07-09T05:25:28;101754.06;;;18.65
81657;BMP280;71067;51.482;-0.580;2023-07-09T05:27:53;101764.78;;;18.70
81657;BMP280;71067;51.482;-0.580;2023-07-09T05:30:19;101774.94;;;18.80
81657;BMP280;71067;51.482;-0.580;2023-07-09T05:32:44;101769.50;;;18.81
81657;BMP280;71067;51.482;-0.580;2023-07-09T05:35:10;101765.25;;;18.80
81657;BMP280;71067;51.482;-0.580;2023-07-09T05:37:36;101771.16;;;18.82
81657;BMP280;71067;51.482;-0.580;2023-07-09T05:40:02;101770.72;;;18.85
81657;BMP280;71067;51.482;-0.580;2023-07-09T05:42:29;101779.63;;;18.84
81657;BMP280;71067;51.482;-0.580;2023-07-09T05:44:55;101772.75;;;18.83
81657;BMP280;71067;51.482;-0.580;2023-07-09T05:47:20;101777.00;;;18.84
81657;BMP280;71067;51.482;-0.580;2023-07-09T05:49:45;101761.38;;;18.76
81657;BMP280;71067;51.482;-0.580;2023-07-09T05:52:14;101770.72;;;18.85
81657;BMP280;71067;51.482;-0.580;2023-07-09T05:54:39;101773.00;;;18.88
81657;BMP280;71067;51.482;-0.580;2023-07-09T05:57:05;101781.31;;;18.92
81657;BMP280;71067;51.482;-0.580;2023-07-09T05:59:31;101761.47;;;18.89
81657;BMP280;71067;51.482;-0.580;2023-07-09T06:01:56;101781.50;;;18.90
81657;BMP280;71067;51.482;-0.580;2023-07-09T06:04:21;101782.03;;;18.86
81657;BMP280;71067;51.482;-0.580;2023-07-09T06:06:46;101793.94;;;18.82
81657;BMP280;71067;51.482;-0.580;2023-07-09T06:09:12;101781.41;;;18.77
81657;BMP280;71067;51.482;-0.580;2023-07-09T06:11:37;101783.25;;;18.83
81657;BMP280;71067;51.482;-0.580;2023-07-09T06:14:02;101792.94;;;18.83
81657;BMP280;71067;51.482;-0.580;2023-07-09T06:16:29;101794.78;;;18.82
81657;BMP280;71067;51.482;-0.580;2023-07-09T06:18:54;101795.75;;;18.81
81657;BMP280;71067;51.482;-0.580;2023-07-09T06:21:19;101776.78;;;18.79
81657;BMP280;71067;51.482;-0.580;2023-07-09T06:23:46;101774.81;;;18.88
81657;BMP280;71067;51.482;-0.580;2023-07-09T06:26:11;101767.94;;;18.87
81657;BMP280;71067;51.482;-0.580;2023-07-09T06:28:37;101774.25;;;18.92
81657;BMP280;71067;51.482;-0.580;2023-07-09T06:31:02;101780.88;;;18.88
81657;BMP280;71067;51.482;-0.580;2023-07-09T06:33:28;101802.22;;;18.85
81657;BMP280;71067;51.482;-0.580;2023-07-09T06:35:57;101795.41;;;18.91
81657;BMP280;71067;51.482;-0.580;2023-07-09T06:38:23;101787.97;;;18.94
81657;BMP280;71067;51.482;-0.580;2023-07-09T06:40:49;101790.97;;;18.91
81657;BMP280;71067;51.482;-0.580;2023-07-09T06:43:15;101789.53;;;18.89
81657;BMP280;71067;51.482;-0.580;2023-07-09T06:45:55;101787.72;;;18.89
81657;BMP280;71067;51.482;-0.580;2023-07-09T06:48:22;101789.38;;;18.90
81657;BMP280;71067;51.482;-0.580;2023-07-09T06:50:48;101778.88;;;18.90
81657;BMP280;71067;51.482;-0.580;2023-07-09T06:53:13;101785.00;;;18.97
81657;BMP280;71067;51.482;-0.580;2023-07-09T06:55:39;101794.88;;;19.02
81657;BMP280;71067;51.482;-0.580;2023-07-09T06:58:05;101794.72;;;19.03
81657;BMP280;71067;51.482;-0.580;2023-07-09T07:00:30;101792.25;;;19.02
81657;BMP280;71067;51.482;-0.580;2023-07-09T07:02:55;101797.34;;;19.03
81657;BMP280;71067;51.482;-0.580;2023-07-09T07:05:20;101789.47;;;19.03
81657;BMP280;71067;51.482;-0.580;2023-07-09T07:07:46;101807.06;;;19.09
81657;BMP280;71067;51.482;-0.580;2023-07-09T07:10:11;101821.19;;;19.08
81657;BMP280;71067;51.482;-0.580;2023-07-09T07:12:43;101843.63;;;19.11
81657;BMP280;71067;51.482;-0.580;2023-07-09T07:15:09;101849.91;;;19.10
81657;BMP280;71067;51.482;-0.580;2023-07-09T07:17:34;101839.75;;;19.07
81657;BMP280;71067;51.482;-0.580;2023-07-09T07:19:59;101849.03;;;19.03
81657;BMP280;71067;51.482;-0.580;2023-07-09T07:22:25;101867.41;;;19.03
81657;BMP280;71067;51.482;-0.580;2023-07-09T07:24:51;101862.16;;;19.03
81657;BMP280;71067;51.482;-0.580;2023-07-09T07:27:16;101879.94;;;19.07
81657;BMP280;71067;51.482;-0.580;2023-07-09T07:29:42;101864.53;;;18.98
81657;BMP280;71067;51.482;-0.580;2023-07-09T07:32:07;101871.88;;;19.09
81657;BMP280;71067;51.482;-0.580;2023-07-09T07:34:33;101858.72;;;19.02
81657;BMP280;71067;51.482;-0.580;2023-07-09T07:36:59;101850.09;;;19.08
81657;BMP280;71067;51.482;-0.580;2023-07-09T07:39:24;101861.81;;;19.12
81657;BMP280;71067;51.482;-0.580;2023-07-09T07:41:49;101865.50;;;19.18
81657;BMP280;71067;51.482;-0.580;2023-07-09T07:44:16;101859.03;;;19.20
81657;BMP280;71067;51.482;-0.580;2023-07-09T07:46:41;101849.31;;;19.14
81657;BMP280;71067;51.482;-0.580;2023-07-09T07:49:07;101822.03;;;19.15
81657;BMP280;71067;51.482;-0.580;2023-07-09T07:51:32;101815.78;;;19.16
81657;BMP280;71067;51.482;-0.580;2023-07-09T07:53:59;101838.41;;;19.17
81657;BMP280;71067;51.482;-0.580;2023-07-09T07:56:24;101837.66;;;19.23
81657;BMP280;71067;51.482;-0.580;2023-07-09T07:58:51;101827.97;;;19.24
81657;BMP280;71067;51.482;-0.580;2023-07-09T08:01:16;101832.41;;;19.30
81657;BMP280;71067;51.482;-0.580;2023-07-09T08:03:41;101819.72;;;19.33
81657;BMP280;71067;51.482;-0.580;2023-07-09T08:06:06;101811.63;;;19.35
81657;BMP280;71067;51.482;-0.580;2023-07-09T08:08:32;101804.19;;;19.38
81657;BMP280;71067;51.482;-0.580;2023-07-09T08:11:06;101789.88;;;19.41
81657;BMP280;71067;51.482;-0.580;2023-07-09T08:13:33;101786.22;;;19.42
81657;BMP280;71067;51.482;-0.580;2023-07-09T08:15:59;101770.69;;;19.47
81657;BMP280;71067;51.482;-0.580;2023-07-09T08:18:24;101768.44;;;19.44
81657;BMP280;71067;51.482;-0.580;2023-07-09T08:20:49;101773.50;;;19.45
81657;BMP280;71067;51.482;-0.580;2023-07-09T08:23:15;101771.94;;;19.57
81657;BMP280;71067;51.482;-0.580;2023-07-09T08:25:40;101778.41;;;19.61
81657;BMP280;71067;51.482;-0.580;2023-07-09T08:28:05;101783.88;;;19.60
81657;BMP280;71067;51.482;-0.580;2023-07-09T08:30:31;101815.66;;;19.71
81657;BMP280;71067;51.482;-0.580;2023-07-09T08:32:56;101817.66;;;19.69
81657;BMP280;71067;51.482;-0.580;2023-07-09T08:35:22;101822.75;;;19.71
81657;BMP280;71067;51.482;-0.580;2023-07-09T08:37:48;101815.25;;;19.74
81657;BMP280;71067;51.482;-0.580;2023-07-09T08:40:15;101826.00;;;19.79
81657;BMP280;71067;51.482;-0.580;2023-07-09T08:42:44;101820.16;;;19.90
81657;BMP280;71067;51.482;-0.580;2023-07-09T08:45:50;101803.22;;;20.00
81657;BMP280;71067;51.482;-0.580;2023-07-09T08:48:20;101799.78;;;20.06
81657;BMP280;71067;51.482;-0.580;2023-07-09T08:50:55;101810.47;;;20.11
81657;BMP280;71067;51.482;-0.580;2023-07-09T08:53:39;101823.69;;;20.17
81657;BMP280;71067;51.482;-0.580;2023-07-09T08:56:08;101828.72;;;20.19
81657;BMP280;71067;51.482;-0.580;2023-07-09T08:58:34;101832.78;;;20.21
81657;BMP280;71067;51.482;-0.580;2023-07-09T09:01:03;101854.66;;;20.22
81657;BMP280;71067;51.482;-0.580;2023-07-09T09:03:37;101849.38;;;20.15
81657;BMP280;71067;51.482;-0.580;2023-07-09T09:06:10;101856.84;;;20.12
81657;BMP280;71067;51.482;-0.580;2023-07-09T09:14:23;101866.97;;;20.15
81657;BMP280;71067;51.482;-0.580;2023-07-09T09:16:51;101892.69;;;20.13
81657;BMP280;71067;51.482;-0.580;2023-07-09T09:19:25;101903.59;;;20.10
81657;BMP280;71067;51.482;-0.580;2023-07-09T09:21:57;101880.09;;;20.08
81657;BMP280;71067;51.482;-0.580;2023-07-09T09:24:29;101863.91;;;20.11
81657;BMP280;71067;51.482;-0.580;2023-07-09T09:26:56;101866.16;;;20.08
81657;BMP280;71067;51.482;-0.580;2023-07-09T09:29:24;101870.78;;;20.06
81657;BMP280;71067;51.482;-0.580;2023-07-09T09:31:53;101860.47;;;20.04
81657;BMP280;71067;51.482;-0.580;2023-07-09T09:34:22;101858.00;;;20.02
81657;BMP280;71067;51.482;-0.580;2023-07-09T09:36:48;101867.56;;;19.97
81657;BMP280;71067;51.482;-0.580;2023-07-09T09:39:14;101861.25;;;19.98
81657;BMP280;71067;51.482;-0.580;2023-07-09T09:41:39;101844.81;;;19.89
81657;BMP280;71067;51.482;-0.580;2023-07-09T09:44:05;101846.84;;;19.87
81657;BMP280;71067;51.482;-0.580;2023-07-09T09:46:32;101845.03;;;19.88
81657;BMP280;71067;51.482;-0.580;2023-07-09T09:49:02;101838.56;;;19.90
81657;BMP280;71067;51.482;-0.580;2023-07-09T09:51:28;101845.63;;;19.90
81657;BMP280;71067;51.482;-0.580;2023-07-09T09:54:01;101845.06;;;19.94
81657;BMP280;71067;51.482;-0.580;2023-07-09T09:56:35;101848.09;;;19.98
81657;BMP280;71067;51.482;-0.580;2023-07-09T09:59:02;101841.63;;;20.01
81657;BMP280;71067;51.482;-0.580;2023-07-09T10:01:34;101828.69;;;19.99
81657;BMP280;71067;51.482;-0.580;2023-07-09T10:04:03;101831.72;;;19.96
81657;BMP280;71067;51.482;-0.580;2023-07-09T10:06:35;101854.16;;;19.98
81657;BMP280;71067;51.482;-0.580;2023-07-09T10:09:23;101852.97;;;19.94
81657;BMP280;71067;51.482;-0.580;2023-07-09T10:12:11;101854.16;;;19.92
81657;BMP280;71067;51.482;-0.580;2023-07-09T10:15:01;101855.59;;;19.94
81657;BMP280;71067;51.482;-0.580;2023-07-09T10:21:10;101861.88;;;20.07
81657;BMP280;71067;51.482;-0.580;2023-07-09T10:26:46;101884.56;;;20.14
81657;BMP280;71067;51.482;-0.580;2023-07-09T10:31:58;101878.88;;;20.11
81657;BMP280;71067;51.482;-0.580;2023-07-09T10:34:33;101878.28;;;20.09
81657;BMP280;71067;51.482;-0.580;2023-07-09T10:39:57;101849.75;;;20.06
81657;BMP280;71067;51.482;-0.580;2023-07-09T10:42:34;101852.41;;;20.12
81657;BMP280;71067;51.482;-0.580;2023-07-09T10:45:23;101860.69;;;20.16
81657;BMP280;71067;51.482;-0.580;2023-07-09T10:47:57;101859.28;;;20.20
81657;BMP280;71067;51.482;-0.580;2023-07-09T10:50:34;101861.38;;;20.31
81657;BMP280;71067;51.482;-0.580;2023-07-09T10:53:07;101854.47;;;20.36
81657;BMP280;71067;51.482;-0.580;2023-07-09T11:01:12;101853.09;;;20.60
81657;BMP280;71067;51.482;-0.580;2023-07-09T11:03:49;101867.25;;;20.72
81657;BMP280;71067;51.482;-0.580;2023-07-09T11:06:54;101865.00;;;20.82
81657;BMP280;71067;51.482;-0.580;2023-07-09T11:09:32;101859.13;;;20.86
81657;BMP280;71067;51.482;-0.580;2023-07-09T11:12:03;101865.22;;;20.87
81657;BMP280;71067;51.482;-0.580;2023-07-09T11:17:29;101859.13;;;20.86
81657;BMP280;71067;51.482;-0.580;2023-07-09T11:19:58;101864.59;;;20.91
81657;BMP280;71067;51.482;-0.580;2023-07-09T11:22:40;101878.38;;;21.00
81657;BMP280;71067;51.482;-0.580;2023-07-09T11:25:13;101875.13;;;21.04
81657;BMP280;71067;51.482;-0.580;2023-07-09T11:27:50;101867.00;;;21.12
81657;BMP280;71067;51.482;-0.580;2023-07-09T11:30:21;101877.75;;;21.24
81657;BMP280;71067;51.482;-0.580;2023-07-09T11:32:53;101881.72;;;21.33
81657;BMP280;71067;51.482;-0.580;2023-07-09T11:35:24;101873.03;;;21.32
81657;BMP280;71067;51.482;-0.580;2023-07-09T11:37:50;101877.28;;;21.40
81657;BMP280;71067;51.482;-0.580;2023-07-09T11:40:18;101877.06;;;21.48
81657;BMP280;71067;51.482;-0.580;2023-07-09T11:42:56;101870.75;;;21.56
81657;BMP280;71067;51.482;-0.580;2023-07-09T11:45:32;101857.94;;;21.59
81657;BMP280;71067;51.482;-0.580;2023-07-09T11:48:19;101850.19;;;21.64
81657;BMP280;71067;51.482;-0.580;2023-07-09T11:50:50;101828.03;;;21.78
81657;BMP280;71067;51.482;-0.580;2023-07-09T11:53:35;101836.69;;;21.85
81657;BMP280;71067;51.482;-0.580;2023-07-09T11:56:03;101837.22;;;22.00
81657;BMP280;71067;51.482;-0.580;2023-07-09T11:58:29;101832.13;;;22.05
81657;BMP280;71067;51.482;-0.580;2023-07-09T12:00:56;101842.78;;;22.17
81657;BMP280;71067;51.482;-0.580;2023-07-09T12:03:31;101839.84;;;22.31
81657;BMP280;71067;51.482;-0.580;2023-07-09T12:06:04;101843.41;;;22.43
81657;BMP280;71067;51.482;-0.580;2023-07-09T12:08:36;101856.34;;;22.51
81657;BMP280;71067;51.482;-0.580;2023-07-09T12:11:01;101862.47;;;22.45
81657;BMP280;71067;51.482;-0.580;2023-07-09T12:13:27;101856.78;;;22.48
81657;BMP280;71067;51.482;-0.580;2023-07-09T12:15:52;101847.41;;;22.52
81657;BMP280;71067;51.482;-0.580;2023-07-09T12:18:18;101847.41;;;22.52
81657;BMP280;71067;51.482;-0.580;2023-07-09T12:20:48;101852.34;;;22.67
81657;BMP280;71067;51.482;-0.580;2023-07-09T12:23:30;101850.16;;;22.82
81657;BMP280;71067;51.482;-0.580;2023-07-09T12:25:59;101846.72;;;22.81
81657;BMP280;71067;51.482;-0.580;2023-07-09T12:28:26;101836.66;;;22.90
81657;BMP280;71067;51.482;-0.580;2023-07-09T12:30:52;101849.53;;;23.04
81657;BMP280;71067;51.482;-0.580;2023-07-09T12:33:23;101835.88;;;23.07
81657;BMP280;71067;51.482;-0.580;2023-07-09T12:35:55;101845.00;;;23.23
81657;BMP280;71067;51.482;-0.580;2023-07-09T12:38:24;101845.84;;;23.23
81657;BMP280;71067;51.482;-0.580;2023-07-09T12:40:51;101844.22;;;23.23
81657;BMP280;71067;51.482;-0.580;2023-07-09T12:43:21;101843.94;;;23.31
81657;BMP280;71067;51.482;-0.580;2023-07-09T12:45:48;101847.88;;;23.40
81657;BMP280;71067;51.482;-0.580;2023-07-09T12:48:14;101843.91;;;23.49
81657;BMP280;71067;51.482;-0.580;2023-07-09T12:50:39;101833.31;;;23.49
81657;BMP280;71067;51.482;-0.580;2023-07-09T12:53:16;101837.50;;;23.56
81657;BMP280;71067;51.482;-0.580;2023-07-09T12:55:45;101838.25;;;23.75
81657;BMP280;71067;51.482;-0.580;2023-07-09T12:58:17;101835.75;;;23.80
81657;BMP280;71067;51.482;-0.580;2023-07-09T13:00:47;101838.59;;;23.78
81657;BMP280;71067;51.482;-0.580;2023-07-09T13:03:18;101835.75;;;23.80
81657;BMP280;71067;51.482;-0.580;2023-07-09T13:05:57;101837.59;;;23.91
81657;BMP280;71067;51.482;-0.580;2023-07-09T13:08:24;101829.44;;;23.92
81657;BMP280;71067;51.482;-0.580;2023-07-09T13:10:50;101826.72;;;24.10
81657;BMP280;71067;51.482;-0.580;2023-07-09T13:13:19;101821.88;;;24.30
81657;BMP280;71067;51.482;-0.580;2023-07-09T13:18:16;101820.88;;;24.31
81657;BMP280;71067;51.482;-0.580;2023-07-09T13:20:44;101820.63;;;24.44
81657;BMP280;71067;51.482;-0.580;2023-07-09T13:23:15;101820.72;;;24.38
81657;BMP280;71067;51.482;-0.580;2023-07-09T13:25:42;101815.09;;;24.23
81657;BMP280;71067;51.482;-0.580;2023-07-09T13:28:15;101820.50;;;24.28
81657;BMP280;71067;51.482;-0.580;2023-07-09T13:30:41;101812.34;;;24.18
81657;BMP280;71067;51.482;-0.580;2023-07-09T13:33:10;101824.97;;;24.16
81657;BMP280;71067;51.482;-0.580;2023-07-09T13:35:35;101825.09;;;24.09
81657;BMP280;71067;51.482;-0.580;2023-07-09T13:38:01;101817.97;;;24.10
81657;BMP280;71067;51.482;-0.580;2023-07-09T13:40:29;101818.81;;;24.22
81657;BMP280;71067;51.482;-0.580;2023-07-09T13:42:55;101824.19;;;24.27
81657;BMP280;71067;51.482;-0.580;2023-07-09T13:45:23;101816.84;;;24.29
81657;BMP280;71067;51.482;-0.580;2023-07-09T13:47:50;101810.59;;;24.23
81657;BMP280;71067;51.482;-0.580;2023-07-09T13:50:17;101827.44;;;24.29
81657;BMP280;71067;51.482;-0.580;2023-07-09T13:52:43;101824.09;;;24.45
81657;BMP280;71067;51.482;-0.580;2023-07-09T13:55:16;101826.38;;;24.41
81657;BMP280;71067;51.482;-0.580;2023-07-09T13:57:42;101816.59;;;24.42
81657;BMP280;71067;51.482;-0.580;2023-07-09T14:00:09;101808.75;;;24.35
81657;BMP280;71067;51.482;-0.580;2023-07-09T14:02:35;101812.56;;;24.28
81657;BMP280;71067;51.482;-0.580;2023-07-09T14:05:02;101819.69;;;24.27
81657;BMP280;71067;51.482;-0.580;2023-07-09T14:07:31;101808.31;;;24.27
81657;BMP280;71067;51.482;-0.580;2023-07-09T14:09:58;101811.63;;;24.22
81657;BMP280;71067;51.482;-0.580;2023-07-09T14:12:24;101806.59;;;24.21
81657;BMP280;71067;51.482;-0.580;2023-07-09T14:14:53;101816.13;;;24.33
81657;BMP280;71067;51.482;-0.580;2023-07-09T14:17:21;101818.44;;;24.41
81657;BMP280;71067;51.482;-0.580;2023-07-09T14:19:48;101818.56;;;24.35